Time;durP1;ratioP1;P1;durP2;ratioP2;P2;SDS_P1;SDS_P2;PMS_P1;PMS_P2;Temp;Humidity;BMP_temperature;BMP_pressure;BME280_temperature;BME280_humidity;BME280_pressure;Samples;Min_cycle;Max_cycle;Signal;HPM_P1;HPM_P2
2021/11/17 02:28:27;;;;;;;;;55.50;34.75;;;;;10.47;71.94;101816.72;5044488;28;45663;-67
2021/11/17 02:31:20;;;;;;;;;52.50;33.50;;;;;10.49;71.60;101807.81;5035242;28;45518;-67
2021/11/17 02:34:00;;;;;;;;;47.75;35.50;;;;;10.49;71.39;101810.44;5025037;28;46143;-71
2021/11/17 02:36:47;;;;;;;;;51.00;38.00;;;;;10.53;71.69;101787.47;4971232;28;45196;-67
2021/11/17 02:39:27;;;;;;;;;57.75;40.25;;;;;10.57;71.42;101788.97;4970155;28;45352;-67
2021/11/17 02:41:53;;;;;;;;;49.50;34.50;;;;;10.65;71.25;101785.91;4974641;28;45478;-66
2021/11/17 02:44:37;;;;;;;;;49.25;36.00;;;;;10.69;71.46;101775.16;4971679;28;46120;-67
2021/11/17 02:47:40;;;;;;;;;55.50;38.50;;;;;10.70;70.54;101771.59;4971883;28;45457;-67
2021/11/17 02:50:53;;;;;;;;;43.50;33.25;;;;;10.72;70.96;101776.75;4973384;28;45356;-67
2021/11/17 02:53:32;;;;;;;;;45.75;36.25;;;;;10.69;70.73;101769.91;4934455;28;45664;-67
2021/11/17 02:56:19;;;;;;;;;50.00;37.25;;;;;10.68;70.78;101773.44;4932420;28;47382;-67
2021/11/17 02:59:00;;;;;;;;;46.25;36.25;;;;;10.67;70.68;101763.88;4931907;28;45430;-66
2021/11/17 03:01:40;;;;;;;;;51.00;37.75;;;;;10.66;70.78;101780.56;4929245;28;45496;-67
2021/11/17 03:04:33;;;;;;;;;42.50;33.00;;;;;10.57;70.66;101783.72;4932828;28;45437;-67
2021/11/17 03:07:20;;;;;;;;;55.00;38.00;;;;;10.49;70.54;101786.78;4932992;28;45484;-67
2021/11/17 03:09:57;;;;;;;;;44.50;34.50;;;;;10.39;71.35;101798.75;4933318;28;45465;-68
2021/11/17 03:12:25;;;;;;;;;52.00;37.00;;;;;10.32;71.15;101795.59;4932587;28;45431;-67
2021/11/17 03:14:57;;;;;;;;;55.50;38.50;;;;;10.24;71.52;101800.44;4933448;28;45472;-68
2021/11/17 03:17:53;;;;;;;;;54.75;40.50;;;;;10.15;71.53;101807.03;4916460;28;47000;-67
2021/11/17 03:20:43;;;;;;;;;56.25;35.25;;;;;10.10;71.99;101816.13;4932581;28;45521;-68
2021/11/17 03:23:28;;;;;;;;;60.50;40.00;;;;;10.06;71.72;101818.88;4904320;28;45391;-66
2021/11/17 03:26:15;;;;;;;;;47.75;37.50;;;;;10.10;72.26;101824.00;4964403;28;45415;-67
2021/11/17 03:28:47;;;;;;;;;54.75;37.00;;;;;10.13;71.67;101821.19;4971776;28;46468;-67
2021/11/17 03:31:21;;;;;;;;;57.75;41.50;;;;;10.16;72.39;101821.00;4973688;28;45505;-68
2021/11/17 03:33:52;;;;;;;;;44.75;34.00;;;;;10.20;72.05;101840.94;4957627;28;45297;-67
2021/11/17 03:36:30;;;;;;;;;56.75;39.25;;;;;10.24;72.44;101842.47;4971099;28;45309;-66
2021/11/17 03:39:30;;;;;;;;;53.75;37.50;;;;;10.29;72.40;101843.06;4973982;28;45415;-66
2021/11/17 03:41:55;;;;;;;;;41.75;33.75;;;;;10.34;71.90;101840.16;4973737;28;45274;-66
2021/11/17 03:44:43;;;;;;;;;56.25;39.75;;;;;10.37;72.34;101846.13;4977893;28;45438;-67
2021/11/17 03:47:37;;;;;;;;;53.50;40.75;;;;;10.41;71.95;101854.69;4985539;28;45415;-67
2021/11/17 03:50:28;;;;;;;;;51.00;40.50;;;;;10.43;71.79;101863.34;4971527;28;46112;-68
2021/11/17 03:53:30;;;;;;;;;56.00;41.50;;;;;10.47;71.82;101861.38;4969972;28;45467;-67
2021/11/17 03:56:23;;;;;;;;;56.50;40.75;;;;;10.51;71.58;101862.91;4969669;28;45391;-67
2021/11/17 03:59:06;;;;;;;;;54.25;40.00;;;;;10.52;71.93;101861.97;4971686;28;45274;-67
2021/11/17 04:01:37;;;;;;;;;53.25;39.75;;;;;10.54;71.85;101862.72;4969851;28;47420;-67
2021/11/17 04:04:25;;;;;;;;;53.25;39.25;;;;;10.59;71.60;101858.06;4983230;28;45459;-68
2021/11/17 04:07:06;;;;;;;;;56.25;40.25;;;;;10.64;71.53;101860.41;4971742;28;45268;-67
2021/11/17 04:09:56;;;;;;;;;54.25;38.00;;;;;10.68;71.36;101870.69;4970992;28;45379;-67
2021/11/17 04:12:54;;;;;;;;;52.50;37.25;;;;;10.69;71.83;101864.50;4974831;28;46298;-67
2021/11/17 04:15:23;;;;;;;;;52.00;37.00;;;;;10.73;71.97;101862.56;4971539;28;45453;-69
2021/11/17 04:18:00;;;;;;;;;59.75;37.50;;;;;10.78;71.64;101864.91;4979845;28;45526;-68
2021/11/17 04:20:50;;;;;;;;;48.50;34.00;;;;;10.82;70.97;101871.66;4974059;28;45490;-66
2021/11/17 04:23:39;;;;;;;;;50.50;36.75;;;;;10.86;71.19;101881.09;4971503;28;46638;-67
2021/11/17 04:26:35;;;;;;;;;53.25;39.25;;;;;10.88;71.31;101889.72;4969540;28;45423;-68
2021/11/17 04:29:38;;;;;;;;;55.00;38.00;;;;;10.92;71.18;101882.53;4971484;28;45457;-68
2021/11/17 04:32:12;;;;;;;;;54.50;38.00;;;;;10.92;70.73;101888.63;4971405;28;47122;-67
2021/11/17 04:34:53;;;;;;;;;53.75;39.75;;;;;10.92;71.31;101893.88;4971262;28;45508;-68
2021/11/17 04:37:39;;;;;;;;;54.50;39.75;;;;;10.90;71.01;101896.59;4969874;28;45353;-67
2021/11/17 04:40:26;;;;;;;;;48.25;36.00;;;;;10.93;71.19;101890.31;4961228;28;45344;-67
2021/11/17 04:43:37;;;;;;;;;50.50;36.50;;;;;10.99;70.85;101889.97;4990085;28;45372;-68
2021/11/17 04:46:18;;;;;;;;;52.50;39.50;;;;;11.02;70.71;101888.94;5012434;28;45470;-67
2021/11/17 04:49:17;;;;;;;;;55.75;37.75;;;;;11.04;70.73;101898.44;5012313;28;45412;-67
2021/11/17 04:51:51;;;;;;;;;56.75;39.00;;;;;11.07;70.55;101898.25;5012055;28;45488;-68
2021/11/17 04:54:25;;;;;;;;;55.25;38.75;;;;;11.07;70.81;101903.50;5009757;28;45379;-67
2021/11/17 04:57:09;;;;;;;;;50.75;39.50;;;;;11.04;70.91;101902.84;4994897;28;46807;-66
2021/11/17 04:59:52;;;;;;;;;49.00;38.00;;;;;11.01;71.31;101901.22;5012116;28;45488;-67
2021/11/17 05:02:42;;;;;;;;;54.00;38.75;;;;;11.02;71.02;101902.94;4995724;28;45593;-66
2021/11/17 05:05:49;;;;;;;;;56.50;40.50;;;;;11.02;71.65;101891.56;4995010;28;45372;-69
2021/11/17 05:08:39;;;;;;;;;54.50;37.75;;;;;10.99;71.62;101889.97;5006628;28;46205;-67
2021/11/17 05:11:10;;;;;;;;;57.00;42.00;;;;;10.95;71.47;101898.09;5012535;28;45445;-67
2021/11/17 05:13:56;;;;;;;;;50.25;39.75;;;;;10.92;71.58;101896.50;5012284;28;45612;-68
2021/11/17 05:16:39;;;;;;;;;47.00;37.50;;;;;10.90;71.67;101893.97;5012341;28;45454;-67
2021/11/17 05:19:19;;;;;;;;;54.50;39.75;;;;;10.89;71.66;101894.06;5008044;28;46281;-67
2021/11/17 05:21:58;;;;;;;;;49.50;38.25;;;;;10.87;72.14;101888.03;4971552;28;45372;-67
2021/11/17 05:24:32;;;;;;;;;53.00;40.00;;;;;10.87;71.81;101896.78;4969233;28;45359;-68
2021/11/17 05:27:17;;;;;;;;;48.50;36.25;;;;;10.88;72.25;101903.75;4969426;28;45436;-66
2021/11/17 05:30:16;;;;;;;;;47.75;36.00;;;;;10.91;72.01;101897.47;4975286;28;45329;-66
2021/11/17 05:32:56;;;;;;;;;52.00;39.25;;;;;10.89;72.16;101897.53;4970569;28;45479;-67
2021/11/17 05:35:48;;;;;;;;;53.75;38.25;;;;;10.88;72.48;101897.63;4976181;28;45489;-68
2021/11/17 05:38:16;;;;;;;;;57.50;40.25;;;;;10.86;72.67;101892.44;4974305;28;45530;-67
2021/11/17 05:41:23;;;;;;;;;55.00;38.75;;;;;10.86;72.59;101891.63;4975533;28;46240;-67
2021/11/17 05:44:08;;;;;;;;;43.25;36.75;;;;;10.82;72.82;101890.06;4984485;28;45517;-66
2021/11/17 05:46:59;;;;;;;;;50.25;37.25;;;;;10.83;73.12;101894.41;4969639;28;45630;-68
2021/11/17 05:49:46;;;;;;;;;53.50;37.00;;;;;10.86;73.43;101895.09;5031840;28;45671;-68
2021/11/17 05:52:37;;;;;;;;;57.00;37.75;;;;;10.92;73.03;101888.63;5031927;28;46264;-67
2021/11/17 05:55:26;;;;;;;;;49.00;36.75;;;;;10.97;73.13;101896.25;5018078;28;45574;-67
2021/11/17 05:57:59;;;;;;;;;42.75;36.50;;;;;10.97;72.74;101886.56;5033750;28;49358;-66
2021/11/17 06:00:30;;;;;;;;;42.75;34.25;;;;;10.98;73.05;101893.53;5033502;28;45575;-69
2021/11/17 06:02:58;;;;;;;;;42.25;36.75;;;;;11.04;73.22;101892.31;5029793;28;45508;-67
2021/11/17 06:05:24;;;;;;;;;52.00;36.75;;;;;11.10;73.33;101885.88;5031317;28;45397;-67
2021/11/17 06:07:49;;;;;;;;;56.00;40.00;;;;;11.15;72.58;101883.81;5032558;28;45444;-67
2021/11/17 06:10:17;;;;;;;;;54.50;39.25;;;;;11.19;72.67;101877.44;5035380;28;45368;-67
2021/11/17 06:12:43;;;;;;;;;51.25;37.75;;;;;11.21;72.29;101873.78;5035352;28;46058;-67
2021/11/17 06:15:12;;;;;;;;;49.00;36.75;;;;;11.29;72.33;101881.22;5035996;28;45323;-68
2021/11/17 06:17:38;;;;;;;;;46.00;36.50;;;;;11.33;72.44;101888.00;5038703;28;45396;-69
2021/11/17 06:20:05;;;;;;;;;54.75;41.25;;;;;11.33;71.91;101882.75;5041380;28;45917;-68
2021/11/17 06:22:32;;;;;;;;;45.75;35.25;;;;;11.32;72.35;101870.50;5039120;28;45492;-67
2021/11/17 06:25:01;;;;;;;;;53.75;40.25;;;;;11.38;72.23;101867.53;5037533;28;45570;-67
2021/11/17 06:27:31;;;;;;;;;54.25;38.75;;;;;11.39;71.67;101871.84;4977331;28;45466;-68
2021/11/17 06:29:58;;;;;;;;;48.50;38.50;;;;;11.42;71.95;101870.84;4975840;28;45448;-67
2021/11/17 06:32:26;;;;;;;;;37.00;32.75;;;;;11.41;71.76;101873.56;4973413;28;46271;-68
2021/11/17 06:34:54;;;;;;;;;45.75;36.00;;;;;11.38;71.88;101875.41;4972949;28;45600;-66
2021/11/17 06:37:22;;;;;;;;;48.67;37.33;;;;;11.37;72.07;101865.84;4972857;28;45380;-68
2021/11/17 06:39:50;;;;;;;;;51.33;35.67;;;;;11.37;72.31;101876.34;4958709;28;45377;-67
2021/11/17 06:42:26;;;;;;;;;45.75;33.00;;;;;11.37;71.75;101873.72;4971122;28;45387;-67
2021/11/17 06:44:53;;;;;;;;;46.75;36.50;;;;;11.36;71.99;101874.69;4973837;28;45401;-67
2021/11/17 06:47:18;;;;;;;;;49.67;36.00;;;;;11.38;71.77;101874.59;4972884;28;45496;-67
2021/11/17 06:49:44;;;;;;;;;49.33;36.33;;;;;11.41;71.85;101884.91;4972439;28;45501;-68
2021/11/17 06:52:09;;;;;;;;;34.67;31.00;;;;;11.46;71.88;101885.50;4971672;28;47080;-68
2021/11/17 06:54:35;;;;;;;;;41.00;33.33;;;;;11.48;71.93;101896.78;4973011;28;46133;-68
2021/11/17 06:57:01;;;;;;;;;37.67;29.00;;;;;11.49;71.70;101897.63;4975172;28;45273;-67
2021/11/17 06:59:27;;;;;;;;;38.33;33.67;;;;;11.45;71.28;101899.59;4972937;28;45523;-68
2021/11/17 07:01:52;;;;;;;;;44.33;30.33;;;;;11.44;72.09;101905.78;4972697;28;46336;-67
2021/11/17 07:04:17;;;;;;;;;49.67;34.00;;;;;11.45;71.92;101911.91;4979726;28;45432;-68
2021/11/17 07:06:43;;;;;;;;;38.33;31.33;;;;;11.42;71.43;101909.44;4972163;28;45401;-67
2021/11/17 07:09:09;;;;;;;;;44.33;28.33;;;;;11.39;71.72;101913.97;4977230;28;45601;-69
2021/11/17 07:11:39;;;;;;;;;36.75;30.50;;;;;11.36;72.06;101924.66;4973635;28;46221;-68
2021/11/17 07:14:10;;;;;;;;;52.00;37.00;;;;;11.35;71.95;101928.22;4972347;28;45355;-68
2021/11/17 07:16:38;;;;;;;;;40.33;34.33;;;;;11.36;72.16;101929.06;4971180;28;45613;-67
2021/11/17 07:19:06;;;;;;;;;38.33;31.33;;;;;11.38;71.96;101943.81;4970650;28;45419;-67
2021/11/17 07:21:31;;;;;;;;;44.67;32.33;;;;;11.36;72.10;101944.84;4973332;28;47611;-67
2021/11/17 07:23:57;;;;;;;;;46.33;33.00;;;;;11.35;71.98;101946.66;4975079;28;45292;-67
2021/11/17 07:26:23;;;;;;;;;49.25;37.00;;;;;11.34;71.98;101955.47;4971001;28;45400;-66
2021/11/17 07:28:48;;;;;;;;;46.50;35.25;;;;;11.33;72.06;101960.81;4972434;28;45415;-68
2021/11/17 07:31:14;;;;;;;;;42.00;32.50;;;;;11.33;72.05;101961.66;4972249;28;46243;-68
2021/11/17 07:33:39;;;;;;;;;41.33;32.67;;;;;11.36;72.35;101966.75;4972370;28;45341;-69
2021/11/17 07:36:05;;;;;;;;;46.25;34.00;;;;;11.29;71.82;101960.16;4973479;28;45663;-68
2021/11/17 07:38:31;;;;;;;;;40.67;33.00;;;;;11.33;71.93;101977.44;4973146;28;45422;-68
2021/11/17 07:40:56;;;;;;;;;35.33;29.00;;;;;11.32;72.24;101981.00;4973440;28;46336;-66
2021/11/17 07:43:24;;;;;;;;;35.00;29.33;;;;;11.29;72.08;101981.19;4973692;28;45380;-69
2021/11/17 07:45:49;;;;;;;;;32.00;26.33;;;;;11.34;71.87;101978.31;4974570;28;45245;-68
2021/11/17 07:48:17;;;;;;;;;30.00;26.33;;;;;11.35;72.50;101985.25;4974756;28;45269;-69
2021/11/17 07:50:44;;;;;;;;;30.67;27.00;;;;;11.36;72.44;101986.94;4972869;28;46205;-67
2021/11/17 07:53:10;;;;;;;;;30.33;27.67;;;;;11.35;72.67;101988.75;4973096;28;45573;-68
2021/11/17 07:55:41;;;;;;;;;41.33;29.33;;;;;11.27;72.22;101975.16;4971620;28;45554;-68
2021/11/17 07:58:08;;;;;;;;;34.00;27.67;;;;;11.37;72.63;101989.47;4973051;28;45420;-68
2021/11/17 08:00:34;;;;;;;;;27.00;23.67;;;;;11.37;72.37;101986.00;4971587;28;46239;-68
2021/11/17 08:03:01;;;;;;;;;39.33;27.67;;;;;11.38;72.85;101996.44;4972537;28;45400;-68
2021/11/17 08:05:27;;;;;;;;;34.33;29.00;;;;;11.41;73.02;101994.59;4972453;28;45443;-69
2021/11/17 08:07:53;;;;;;;;;33.00;28.33;;;;;11.44;72.52;101994.41;4972422;28;45509;-68
2021/11/17 08:10:25;;;;;;;;;30.67;26.00;;;;;11.41;72.41;101978.81;4972287;28;47284;-68
2021/11/17 08:12:51;;;;;;;;;33.33;27.33;;;;;11.46;72.91;101982.00;4996810;28;45347;-68
2021/11/17 08:15:17;;;;;;;;;31.67;28.00;;;;;11.47;72.80;101988.94;4973617;28;45564;-68
2021/11/17 08:17:42;;;;;;;;;29.33;25.33;;;;;11.48;73.21;101996.78;4971419;28;45368;-69
2021/11/17 08:20:12;;;;;;;;;32.67;29.33;;;;;11.50;72.73;101996.69;4972263;28;46260;-67
2021/11/17 08:22:43;;;;;;;;;29.67;27.67;;;;;11.52;72.74;102000.06;4972343;28;45616;-67
2021/11/17 08:25:10;;;;;;;;;31.00;24.33;;;;;11.53;72.64;101996.50;4976161;28;45400;-67
2021/11/17 08:27:35;;;;;;;;;30.67;24.33;;;;;11.54;73.20;102006.09;4975851;28;45358;-68
2021/11/17 08:30:01;;;;;;;;;31.67;27.33;;;;;11.53;72.72;102000.00;4978113;28;46213;-68
2021/11/17 08:32:27;;;;;;;;;27.33;20.67;;;;;11.56;72.89;102001.59;4977731;28;45245;-68
2021/11/17 08:34:53;;;;;;;;;38.00;29.00;;;;;11.57;72.76;101998.00;4972690;28;45485;-68
2021/11/17 08:37:19;;;;;;;;;32.33;27.33;;;;;11.62;72.72;102003.00;4971255;28;45615;-68
2021/11/17 08:39:47;;;;;;;;;31.33;26.67;;;;;11.67;72.64;102006.22;4972481;28;45568;-67
2021/11/17 08:42:14;;;;;;;;;35.33;27.33;;;;;11.71;72.96;102013.88;4974534;28;45443;-68
2021/11/17 08:44:42;;;;;;;;;30.67;27.67;;;;;11.75;72.65;102018.94;4971909;28;45511;-67
2021/11/17 08:47:09;;;;;;;;;37.00;28.67;;;;;11.75;73.07;102019.78;4971229;28;45426;-66
2021/11/17 08:49:36;;;;;;;;;29.33;24.67;;;;;11.76;72.61;102010.09;4971116;28;46313;-67
2021/11/17 08:52:02;;;;;;;;;27.33;25.00;;;;;11.75;72.72;102021.56;4970560;28;45403;-67
2021/11/17 08:54:28;;;;;;;;;21.00;14.33;;;;;11.81;72.72;102018.59;4972392;28;45335;-67
2021/11/17 08:56:55;;;;;;;;;31.67;22.00;;;;;11.83;72.57;102019.31;4972934;28;45467;-68
2021/11/17 08:59:22;;;;;;;;;30.00;29.67;;;;;11.86;72.63;102013.91;4970936;28;45578;-66
2021/11/17 09:01:48;;;;;;;;;41.33;33.00;;;;;11.87;72.78;102008.53;4970689;28;45299;-69
2021/11/17 09:04:13;;;;;;;;;34.00;28.33;;;;;11.87;72.96;102018.19;4972236;28;45326;-68
2021/11/17 09:06:40;;;;;;;;;33.33;26.33;;;;;11.95;72.92;102020.38;4972691;28;45237;-67
2021/11/17 09:09:06;;;;;;;;;34.00;27.33;;;;;11.98;72.77;102021.09;4973297;28;46018;-67
2021/11/17 09:11:35;;;;;;;;;31.50;29.00;;;;;12.03;72.25;102024.28;4971077;28;45628;-67
2021/11/17 09:14:01;;;;;;;;;38.00;29.00;;;;;12.05;72.67;102022.44;4969230;28;45454;-67
2021/11/17 09:16:30;;;;;;;;;30.67;27.33;;;;;12.10;72.33;102024.75;4968504;28;45418;-68
2021/11/17 09:18:57;;;;;;;;;30.00;28.00;;;;;12.12;72.04;102032.59;4970817;28;46166;-67
2021/11/17 09:21:23;;;;;;;;;31.67;24.67;;;;;12.12;72.04;102024.69;4972491;28;45366;-67
2021/11/17 09:23:49;;;;;;;;;23.33;20.67;;;;;12.13;72.01;102032.50;4972476;28;45503;-68
2021/11/17 09:26:17;;;;;;;;;31.67;28.00;;;;;12.10;72.09;102027.41;4974426;28;45517;-68
2021/11/17 09:28:43;;;;;;;;;31.00;28.33;;;;;12.10;72.10;102029.19;4971503;28;45791;-67
2021/11/17 09:31:10;;;;;;;;;29.67;26.67;;;;;12.09;72.05;102036.25;4971080;28;45414;-66
2021/11/17 09:33:39;;;;;;;;;53.75;42.00;;;;;12.09;72.22;102032.75;4971241;28;46911;-67
2021/11/17 09:36:09;;;;;;;;;37.33;23.33;;;;;12.11;72.09;102039.63;4971885;28;45469;-68
2021/11/17 09:38:34;;;;;;;;;32.67;29.00;;;;;12.14;72.23;102046.50;4970312;28;46546;-68
2021/11/17 09:41:10;;;;;;;;;30.33;26.33;;;;;12.12;71.96;102046.59;4970418;28;45246;-68
2021/11/17 09:43:39;;;;;;;;;28.33;24.33;;;;;12.10;72.32;102050.25;4972969;28;45345;-67
2021/11/17 09:46:06;;;;;;;;;38.00;31.00;;;;;12.08;72.65;102046.88;4974460;28;45727;-68
2021/11/17 09:48:39;;;;;;;;;39.33;29.67;;;;;12.10;72.32;102051.09;4973683;28;46980;-68
2021/11/17 09:51:30;;;;;;;;;39.00;30.33;;;;;12.10;72.39;102056.38;4976285;28;45427;-67
2021/11/17 09:54:09;;;;;;;;;38.00;27.00;;;;;12.09;72.82;102064.38;4980612;28;46335;-69
2021/11/17 09:56:45;;;;;;;;;39.67;32.33;;;;;12.10;72.76;102068.72;4974659;28;45530;-69
2021/11/17 09:59:46;;;;;;;;;45.00;30.00;;;;;12.09;72.48;102080.16;4975859;28;46169;-69
2021/11/17 10:02:14;;;;;;;;;33.33;28.33;;;;;12.07;72.78;102077.63;4977725;27;45501;-67
2021/11/17 10:04:52;;;;;;;;;31.67;29.00;;;;;12.07;73.06;102079.44;4977468;28;45460;-68
2021/11/17 10:10:23;;;;;;;;;32.33;24.33;;;;;12.14;72.96;102084.25;4975094;28;46182;-68
2021/11/17 10:13:22;;;;;;;;;39.33;32.00;;;;;12.19;73.10;102081.31;4973270;28;45477;-67
2021/11/17 10:15:51;;;;;;;;;34.33;28.33;;;;;12.23;73.20;102067.03;4959458;28;45800;-68
2021/11/17 10:18:17;;;;;;;;;36.00;29.67;;;;;12.33;73.13;102081.34;4973037;28;45303;-67
2021/11/17 10:20:49;;;;;;;;;37.33;33.00;;;;;12.40;73.11;102083.63;4974401;28;45459;-67
2021/11/17 10:23:27;;;;;;;;;36.67;31.00;;;;;12.46;73.02;102080.63;4973727;28;45508;-67
2021/11/17 10:25:53;;;;;;;;;47.00;33.00;;;;;12.51;72.30;102075.91;4975005;28;45416;-67
2021/11/17 10:28:53;;;;;;;;;28.67;25.67;;;;;12.59;72.75;102083.34;4973584;28;45297;-67
2021/11/17 10:31:33;;;;;;;;;38.00;30.67;;;;;12.67;72.59;102081.09;4961773;28;47260;-67
2021/11/17 10:34:07;;;;;;;;;37.67;31.67;;;;;12.73;72.14;102082.47;4961205;28;45419;-68
2021/11/17 10:37:07;;;;;;;;;36.33;24.67;;;;;12.79;72.29;102076.84;4975608;28;45368;-67
2021/11/17 10:39:39;;;;;;;;;37.00;30.67;;;;;12.89;72.35;102083.22;4973269;28;45572;-67
2021/11/17 10:42:19;;;;;;;;;38.67;30.33;;;;;12.97;71.92;102080.97;4989457;28;46853;-67
2021/11/17 10:44:55;;;;;;;;;51.25;39.25;;;;;13.03;71.99;102079.72;4973748;28;45454;-66
2021/11/17 10:47:26;;;;;;;;;37.00;31.00;;;;;13.09;71.94;102083.75;4974109;28;45533;-68
2021/11/17 10:50:21;;;;;;;;;41.00;34.00;;;;;13.18;71.86;102078.78;4974045;28;45467;-67
2021/11/17 10:52:55;;;;;;;;;44.75;36.50;;;;;13.27;71.57;102079.09;4968859;28;45780;-67
2021/11/17 10:55:24;;;;;;;;;47.33;34.67;;;;;13.30;71.33;102071.84;4967950;28;45313;-67
2021/11/17 10:57:49;;;;;;;;;47.33;34.00;;;;;13.28;71.17;102062.34;4968559;28;45531;-67
2021/11/17 11:00:20;;;;;;;;;37.33;32.67;;;;;13.35;71.09;102075.03;4980957;28;45293;-69
2021/11/17 11:02:48;;;;;;;;;36.00;32.33;;;;;13.39;70.74;102072.22;4980428;28;47301;-68
2021/11/17 11:05:21;;;;;;;;;47.67;34.00;;;;;13.43;70.89;102079.00;4976996;28;45827;-69
2021/11/17 11:07:57;;;;;;;;;41.33;31.33;;;;;13.45;70.75;102072.66;4977425;28;45562;-67
2021/11/17 11:10:37;;;;;;;;;32.33;29.67;;;;;13.46;70.65;102078.81;4974661;28;45427;-67
2021/11/17 11:13:07;;;;;;;;;36.67;30.33;;;;;13.46;70.67;102073.53;4970904;28;46156;-70
2021/11/17 11:15:44;;;;;;;;;35.33;30.33;;;;;13.48;70.33;102071.63;4971633;28;45731;-68
2021/11/17 11:18:26;;;;;;;;;35.67;31.33;;;;;13.52;70.38;102081.06;4973396;28;45479;-66
2021/11/17 11:20:55;;;;;;;;;31.33;29.33;;;;;13.50;70.49;102069.75;4966812;28;45553;-79
2021/11/17 11:23:29;;;;;;;;;24.33;23.00;;;;;13.41;70.41;102081.72;4964432;28;46376;-79
2021/11/17 11:26:12;;;;;;;;;33.00;27.33;;;;;13.37;70.49;102072.31;4962034;28;45405;-79
2021/11/17 11:28:47;;;;;;;;;29.00;24.00;;;;;13.36;70.31;102063.56;4968865;28;45506;-79
2021/11/17 11:31:12;;;;;;;;;30.33;25.00;;;;;13.32;70.09;102055.91;5013935;28;45497;-76
2021/11/17 11:34:12;;;;;;;;;28.33;23.67;;;;;13.30;69.99;102058.66;4986115;28;46248;-80
2021/11/17 11:36:44;;;;;;;;;26.33;25.00;;;;;13.29;69.28;102062.22;5034385;28;45494;-77
2021/11/17 11:39:09;;;;;;;;;30.67;24.67;;;;;13.26;69.58;102061.56;5030632;28;45361;-78
2021/11/17 11:41:40;;;;;;;;;30.33;28.33;;;;;13.21;69.47;102059.25;5030047;28;45482;-78
2021/11/17 11:44:18;;;;;;;;;29.33;23.33;;;;;13.20;69.26;102060.19;5027360;28;47226;-78
2021/11/17 11:46:50;;;;;;;;;24.67;20.33;;;;;13.18;69.27;102051.50;5021042;28;45478;-79
2021/11/17 11:49:24;;;;;;;;;33.00;23.67;;;;;13.15;69.23;102060.47;5030634;28;45487;-78
2021/11/17 11:52:06;;;;;;;;;16.00;13.67;;;;;13.09;69.10;102054.75;5018313;28;45591;-78
2021/11/17 11:54:54;;;;;;;;;16.33;15.33;;;;;13.14;68.88;102058.81;5031537;28;46261;-77
2021/11/17 11:57:25;;;;;;;;;24.33;18.33;;;;;13.25;68.77;102062.56;5023596;28;45510;-79
2021/11/17 12:00:13;;;;;;;;;25.67;20.67;;;;;13.25;68.80;102066.03;5033868;28;45444;-78
2021/11/17 12:02:54;;;;;;;;;20.67;15.67;;;;;13.33;68.75;102063.72;5010042;28;45688;-79
2021/11/17 12:05:29;;;;;;;;;24.00;21.00;;;;;13.40;68.52;102066.88;5028176;28;45503;-78
2021/11/17 12:08:03;;;;;;;;;23.00;20.67;;;;;13.38;68.22;102060.84;5028005;28;45565;-78
2021/11/17 12:10:35;;;;;;;;;25.00;23.00;;;;;13.40;68.20;102063.38;5018560;28;45523;-66
2021/11/17 12:13:23;;;;;;;;;48.50;40.00;;;;;13.47;68.41;102065.50;4981900;28;45637;-65
2021/11/17 12:16:00;;;;;;;;;24.33;20.33;;;;;13.54;67.54;102058.03;4961853;28;47326;-66
2021/11/17 12:18:26;;;;;;;;;21.67;16.33;;;;;13.55;67.37;102051.81;4954492;28;45407;-66
2021/11/17 12:21:18;;;;;;;;;24.67;20.33;;;;;13.61;67.77;102054.06;4961850;28;45298;-66
2021/11/17 12:23:45;;;;;;;;;26.00;16.33;;;;;13.65;66.98;102037.06;4961142;28;45689;-67
2021/11/17 12:26:17;;;;;;;;;22.33;15.00;;;;;13.72;67.06;102044.56;4961417;28;46985;-68
2021/11/17 12:29:09;;;;;;;;;23.67;20.67;;;;;13.77;66.80;102045.13;4971340;28;45408;-65
2021/11/17 12:31:41;;;;;;;;;20.00;17.67;;;;;13.78;67.06;102042.38;5015452;28;45301;-65
2021/11/17 12:34:18;;;;;;;;;25.00;18.67;;;;;13.81;67.06;102051.88;5026043;28;45518;-65
2021/11/17 12:37:00;;;;;;;;;19.00;17.00;;;;;13.82;66.98;102054.41;5039396;28;48991;-66
2021/11/17 12:39:32;;;;;;;;;23.00;20.33;;;;;13.83;67.05;102049.97;4958520;28;45368;-66
2021/11/17 12:42:02;;;;;;;;;25.33;21.67;;;;;13.92;66.98;102059.06;4956758;28;45375;-63
2021/11/17 12:44:31;;;;;;;;;21.67;18.67;;;;;13.98;66.85;102062.13;4961137;28;45359;-69
2021/11/17 12:47:17;;;;;;;;;18.00;18.00;;;;;14.01;66.68;102063.72;4981997;28;46364;-64
2021/11/17 12:49:47;;;;;;;;;28.00;21.33;;;;;14.02;66.57;102060.13;5004607;28;45682;-65
2021/11/17 12:52:37;;;;;;;;;24.67;22.67;;;;;14.03;66.88;102060.03;4971070;28;45518;-64
2021/11/17 12:55:29;;;;;;;;;24.33;20.67;;;;;14.06;66.62;102066.91;4958540;28;45391;-65
2021/11/17 12:58:05;;;;;;;;;23.33;22.00;;;;;14.11;66.61;102053.41;4954967;28;47962;-65
2021/11/17 13:00:40;;;;;;;;;24.67;20.33;;;;;14.15;66.61;102041.66;4956204;28;45606;-66
2021/11/17 13:03:09;;;;;;;;;27.00;22.00;;;;;14.19;66.85;102044.00;4972323;28;45513;-66
2021/11/17 13:05:43;;;;;;;;;25.67;21.33;;;;;14.25;66.62;102050.66;4963417;28;45333;-65
2021/11/17 13:08:15;;;;;;;;;22.00;20.67;;;;;14.30;66.52;102045.88;4988855;28;45542;-65
2021/11/17 13:10:58;;;;;;;;;25.33;21.33;;;;;14.36;66.38;102050.75;5013472;28;45526;-65
2021/11/17 13:13:37;;;;;;;;;21.33;17.33;;;;;14.44;66.34;102049.38;5013462;28;45364;-65
2021/11/17 13:16:08;;;;;;;;;20.67;18.33;;;;;14.49;66.08;102039.31;5009482;28;45397;-65
2021/11/17 13:18:44;;;;;;;;;17.67;17.67;;;;;14.51;66.34;102042.72;4956462;28;46886;-66
2021/11/17 13:21:21;;;;;;;;;23.00;18.67;;;;;14.52;66.12;102042.59;4967699;28;45270;-66
2021/11/17 13:23:55;;;;;;;;;23.00;19.00;;;;;14.53;66.33;102051.41;4960970;28;45424;-66
2021/11/17 13:26:30;;;;;;;;;19.33;18.33;;;;;14.53;66.08;102051.41;4997856;28;45580;-64
2021/11/17 13:28:55;;;;;;;;;18.67;14.67;;;;;14.53;66.03;102048.75;4997672;28;46354;-64
2021/11/17 13:31:44;;;;;;;;;17.00;15.00;;;;;14.56;65.71;102058.25;4961628;28;45467;-64
2021/11/17 13:34:12;;;;;;;;;22.67;17.67;;;;;14.53;65.86;102060.16;4958771;28;45392;-65
2021/11/17 13:36:45;;;;;;;;;21.67;16.67;;;;;14.51;65.78;102050.63;4955158;28;45381;-65
2021/11/17 13:39:13;;;;;;;;;18.67;15.00;;;;;14.47;65.54;102052.66;5029110;27;45632;-66
2021/11/17 13:41:43;;;;;;;;;20.00;15.00;;;;;14.48;65.89;102058.81;5013281;28;45361;-65
2021/11/17 13:44:10;;;;;;;;;15.33;14.67;;;;;14.46;65.90;102055.41;4985528;28;45466;-64
2021/11/17 13:46:48;;;;;;;;;17.00;14.33;;;;;14.40;65.71;102058.47;4965148;28;45450;-65
2021/11/17 13:49:13;;;;;;;;;19.00;16.00;;;;;14.39;66.15;102062.06;5022448;28;46733;-66
2021/11/17 13:51:40;;;;;;;;;16.33;16.00;;;;;14.36;65.76;102069.25;4955637;28;45262;-66
2021/11/17 13:54:05;;;;;;;;;15.67;13.00;;;;;14.33;66.11;102069.47;5026517;28;45416;-66
2021/11/17 13:56:36;;;;;;;;;22.33;18.00;;;;;14.33;65.75;102074.75;4969413;28;45463;-65
2021/11/17 13:59:02;;;;;;;;;15.33;13.33;;;;;14.32;66.13;102075.72;4959804;28;45300;-66
2021/11/17 14:01:27;;;;;;;;;12.33;12.33;;;;;14.29;66.33;102073.25;4960698;28;48478;-66
2021/11/17 14:03:53;;;;;;;;;13.67;12.33;;;;;14.28;66.22;102073.38;4956942;28;45998;-65
2021/11/17 14:06:20;;;;;;;;;11.67;11.67;;;;;14.27;66.13;102074.31;4957351;28;45366;-65
2021/11/17 14:08:47;;;;;;;;;12.67;9.00;;;;;14.23;66.15;102064.91;5014024;28;46141;-65
2021/11/17 14:11:13;;;;;;;;;13.67;9.00;;;;;14.25;66.01;102076.25;4981890;28;45435;-65
2021/11/17 14:13:39;;;;;;;;;20.33;16.00;;;;;14.26;66.14;102081.41;4959786;28;45703;-64
2021/11/17 14:16:05;;;;;;;;;14.00;11.33;;;;;14.23;66.36;102076.31;4961608;28;45435;-66